createdAt,value
2019-05-29T00:00:56.767Z,101312.99
2019-05-29T00:03:22.269Z,101317.14
2019-05-29T00:05:47.719Z,101317.20
2019-05-29T00:08:14.370Z,101324.36
2019-05-29T00:10:39.991Z,101331.27
2019-05-29T00:13:06.206Z,101329.89
2019-05-29T00:15:32.111Z,101330.08
2019-05-29T00:17:57.508Z,101330.54
2019-05-29T00:20:22.970Z,101333.92
2019-05-29T00:22:48.728Z,101334.87
2019-05-29T00:25:14.811Z,101336.14
2019-05-29T00:27:40.168Z,101346.86
2019-05-29T00:30:06.909Z,101348.43
2019-05-29T00:32:32.469Z,101349.85
2019-05-29T00:34:58.304Z,101349.92
2019-05-29T00:37:24.021Z,101348.20
2019-05-29T00:39:49.448Z,101356.95
2019-05-29T00:42:16.017Z,101361.56
2019-05-29T00:44:41.984Z,101357.67
2019-05-29T00:47:07.481Z,101356.13
2019-05-29T00:49:32.971Z,101356.83
2019-05-29T00:51:58.349Z,101363.64
2019-05-29T00:54:23.809Z,101362.27
2019-05-29T00:56:49.534Z,101369.86
2019-05-29T00:59:15.178Z,101362.70
2019-05-29T01:01:40.872Z,101372.70
2019-05-29T01:04:06.380Z,101368.70
2019-05-29T01:06:31.836Z,101370.93
2019-05-29T01:08:57.315Z,101374.29
2019-05-29T01:11:23.021Z,101377.17
2019-05-29T01:13:48.483Z,101383.55
2019-05-29T01:16:15.347Z,101384.08
2019-05-29T01:18:41.395Z,101393.09
2019-05-29T01:21:06.847Z,101388.59
2019-05-29T01:23:32.627Z,101399.61
2019-05-29T01:25:58.082Z,101401.91
2019-05-29T01:28:23.527Z,101396.31
2019-05-29T01:30:51.485Z,101403.59
2019-05-29T01:33:18.606Z,101405.92
2019-05-29T01:35:43.343Z,101407.62
2019-05-29T01:38:08.787Z,101417.91
2019-05-29T01:40:34.270Z,101416.03
2019-05-29T01:42:59.717Z,101419.72
2019-05-29T01:45:25.156Z,101422.95
2019-05-29T01:47:50.599Z,101429.64
2019-05-29T01:50:17.794Z,101429.81
2019-05-29T01:52:43.302Z,101434.92
2019-05-29T01:55:09.561Z,101435.55
2019-05-29T01:57:35.028Z,101434.17
2019-05-29T02:00:00.733Z,101433.09
2019-05-29T02:02:26.200Z,101433.00
2019-05-29T02:04:51.817Z,101443.73
2019-05-29T02:07:17.954Z,101440.17
2019-05-29T02:09:43.752Z,101447.01
2019-05-29T02:12:09.493Z,101449.25
2019-05-29T02:14:34.933Z,101448.00
2019-05-29T02:17:00.687Z,101457.83
2019-05-29T02:19:26.139Z,101464.17
2019-05-29T02:21:51.588Z,101459.69
2019-05-29T02:24:17.090Z,101464.19
2019-05-29T02:26:43.103Z,101465.90
2019-05-29T02:29:08.603Z,101468.02
2019-05-29T02:31:33.973Z,101466.45
2019-05-29T02:33:59.656Z,101472.44
2019-05-29T02:36:28.680Z,101466.76
2019-05-29T02:38:54.477Z,101468.19
2019-05-29T02:41:21.653Z,101467.21
2019-05-29T02:43:47.062Z,101468.94
2019-05-29T02:46:12.470Z,101470.19
2019-05-29T02:48:37.945Z,101470.58
2019-05-29T02:51:03.544Z,101469.55
2019-05-29T02:53:30.625Z,101470.92
2019-05-29T02:55:56.118Z,101472.94
2019-05-29T02:58:23.561Z,101470.85
2019-05-29T03:00:56.177Z,101473.47
2019-05-29T03:03:23.802Z,101476.22
2019-05-29T03:05:49.556Z,101473.91
2019-05-29T03:08:24.695Z,101471.16
2019-05-29T03:10:50.480Z,101480.18
2019-05-29T03:13:16.364Z,101495.02
2019-05-29T03:15:41.819Z,101501.20
2019-05-29T03:18:07.238Z,101500.59
2019-05-29T03:20:34.436Z,101505.58
2019-05-29T03:22:59.856Z,101506.78
2019-05-29T03:25:26.512Z,101505.94
2019-05-29T03:27:51.898Z,101514.34
2019-05-29T03:30:17.475Z,101509.33
2019-05-29T03:32:47.750Z,101519.88
2019-05-29T03:35:10.198Z,101510.29
2019-05-29T03:37:35.814Z,101515.45
2019-05-29T03:40:01.284Z,101518.18
2019-05-29T03:42:28.204Z,101512.47
2019-05-29T03:44:53.850Z,101508.56
2019-05-29T03:47:19.187Z,101516.45
2019-05-29T03:49:44.558Z,101517.47
2019-05-29T03:52:10.033Z,101531.46
2019-05-29T03:54:35.604Z,101525.81
2019-05-29T03:57:01.731Z,101534.58
2019-05-29T03:59:39.496Z,101535.45
2019-05-29T04:02:04.938Z,101537.34
2019-05-29T04:04:31.348Z,101533.72
2019-05-29T04:06:57.352Z,101545.27
2019-05-29T04:09:22.702Z,101552.84
2019-05-29T04:11:48.168Z,101553.69
2019-05-29T04:14:13.706Z,101551.63
2019-05-29T04:16:58.305Z,101554.05
2019-05-29T04:19:16.016Z,101560.41
2019-05-29T04:21:44.359Z,101560.75
2019-05-29T04:24:10.024Z,101558.50
2019-05-29T04:26:40.889Z,101569.66
2019-05-29T04:29:06.540Z,101567.56
2019-05-29T04:31:32.530Z,101569.65
2019-05-29T04:33:58.458Z,101579.80
2019-05-29T04:36:23.841Z,101583.43
2019-05-29T04:38:49.325Z,101592.03
2019-05-29T04:41:14.983Z,101596.71
2019-05-29T04:43:40.450Z,101609.07
2019-05-29T04:46:05.912Z,101605.78
2019-05-29T04:48:36.168Z,101604.73
2019-05-29T04:51:01.292Z,101606.09
2019-05-29T04:53:26.797Z,101610.02
2019-05-29T04:55:52.655Z,101605.61
2019-05-29T04:58:18.118Z,101614.68
2019-05-29T05:00:58.223Z,101613.66
2019-05-29T05:03:11.018Z,101620.55
2019-05-29T05:05:37.439Z,101620.34
2019-05-29T05:08:02.929Z,101618.73
2019-05-29T05:10:41.131Z,101623.19
2019-05-29T05:13:07.278Z,101622.62
2019-05-29T05:15:35.886Z,101628.62
2019-05-29T05:18:02.075Z,101627.65
2019-05-29T05:20:27.725Z,101627.33
2019-05-29T05:22:53.721Z,101629.45
2019-05-29T05:25:19.249Z,101632.70
2019-05-29T05:27:44.666Z,101633.72
2019-05-29T05:30:10.717Z,101637.73
2019-05-29T05:32:36.880Z,101645.30
2019-05-29T05:35:02.418Z,101643.14
2019-05-29T05:37:27.889Z,101640.67
2019-05-29T05:39:53.506Z,101644.79
2019-05-29T05:42:18.970Z,101645.45
2019-05-29T05:44:44.313Z,101648.16
2019-05-29T05:47:11.015Z,101653.61
2019-05-29T05:49:37.347Z,101658.21
2019-05-29T05:52:02.765Z,101663.96
2019-05-29T05:54:28.315Z,101656.00
2019-05-29T05:56:53.913Z,101665.45
2019-05-29T05:59:19.649Z,101666.22
2019-05-29T06:01:45.337Z,101668.61
2019-05-29T06:04:10.804Z,101674.97
2019-05-29T06:06:36.279Z,101673.38
2019-05-29T06:09:01.967Z,101687.69
2019-05-29T06:11:27.391Z,101687.50
2019-05-29T06:13:52.869Z,101685.86
2019-05-29T06:16:18.344Z,101681.79
2019-05-29T06:18:44.073Z,101676.63
2019-05-29T06:21:09.800Z,101676.36
2019-05-29T06:23:35.247Z,101680.51
2019-05-29T06:26:00.703Z,101679.11
2019-05-29T06:28:26.141Z,101676.51
2019-05-29T06:30:51.699Z,101677.43
2019-05-29T06:33:17.070Z,101678.59
2019-05-29T06:35:43.672Z,101677.96
2019-05-29T06:38:09.236Z,101687.91
2019-05-29T06:40:38.784Z,101693.45
2019-05-29T06:43:05.936Z,101689.09
2019-05-29T06:45:37.833Z,101693.44
2019-05-29T06:48:06.189Z,101695.14
2019-05-29T06:50:31.799Z,101694.01
2019-05-29T06:52:57.230Z,101697.19
2019-05-29T06:55:22.674Z,101700.86
2019-05-29T06:57:48.827Z,101697.79
2019-05-29T07:00:34.144Z,101703.33
2019-05-29T07:02:44.890Z,101703.56
2019-05-29T07:05:11.908Z,101708.88
2019-05-29T07:07:38.215Z,101710.57
2019-05-29T07:10:04.153Z,101712.43
2019-05-29T07:12:29.904Z,101714.59
2019-05-29T07:14:55.535Z,101717.98
2019-05-29T07:17:20.990Z,101724.83
2019-05-29T07:19:58.818Z,101724.05
2019-05-29T07:22:13.610Z,101726.70
2019-05-29T07:24:39.072Z,101733.33
2019-05-29T07:27:04.535Z,101730.66
2019-05-29T07:29:29.984Z,101736.08
2019-05-29T07:31:55.637Z,101734.02
2019-05-29T07:34:21.102Z,101739.16
2019-05-29T07:36:48.068Z,101738.98
2019-05-29T07:39:13.652Z,101747.95
2019-05-29T07:41:39.562Z,101742.86
2019-05-29T07:44:05.184Z,101748.53
2019-05-29T07:46:30.909Z,101747.07
2019-05-29T07:48:56.341Z,101743.35
2019-05-29T07:51:21.894Z,101749.56
2019-05-29T07:53:48.625Z,101753.47
2019-05-29T07:56:22.516Z,101755.37
2019-05-29T07:58:43.557Z,101747.19
2019-05-29T08:01:20.186Z,101741.99
2019-05-29T08:03:45.643Z,101749.46
2019-05-29T08:06:11.331Z,101739.30
2019-05-29T08:08:36.728Z,101749.27
2019-05-29T08:11:02.932Z,101748.16
2019-05-29T08:13:28.391Z,101748.93
2019-05-29T08:16:02.540Z,101755.27
2019-05-29T08:18:24.587Z,101749.05
2019-05-29T08:20:50.593Z,101753.76
2019-05-29T08:23:16.310Z,101754.39
2019-05-29T08:25:43.363Z,101749.38
2019-05-29T08:28:08.894Z,101750.88
2019-05-29T08:30:34.342Z,101752.55
2019-05-29T08:32:59.795Z,101745.92
2019-05-29T08:35:25.276Z,101752.79
2019-05-29T08:37:51.179Z,101755.66
2019-05-29T08:40:17.306Z,101756.33
2019-05-29T08:42:43.168Z,101755.13
2019-05-29T08:45:09.333Z,101739.50
2019-05-29T08:47:34.887Z,101746.98
2019-05-29T08:50:17.239Z,101749.45
2019-05-29T08:52:27.784Z,101753.02
2019-05-29T08:54:53.183Z,101751.22
2019-05-29T08:57:18.651Z,101749.45
2019-05-29T08:59:44.414Z,101746.14
2019-05-29T09:02:10.040Z,101743.86
2019-05-29T09:04:35.421Z,101748.63
2019-05-29T09:07:01.087Z,101743.89
2019-05-29T09:09:26.776Z,101751.70
2019-05-29T09:11:53.733Z,101757.20
2019-05-29T09:14:19.416Z,101747.51
2019-05-29T09:16:44.876Z,101748.87
2019-05-29T09:19:10.382Z,101752.33
2019-05-29T09:21:35.866Z,101749.94
2019-05-29T09:24:01.277Z,101751.98
2019-05-29T09:26:26.865Z,101755.48
2019-05-29T09:28:52.335Z,101756.09
2019-05-29T09:31:18.677Z,101755.06
2019-05-29T09:33:45.286Z,101760.52
2019-05-29T09:36:10.725Z,101761.78
2019-05-29T09:38:36.166Z,101758.87
2019-05-29T09:41:01.588Z,101754.99
2019-05-29T09:43:30.639Z,101756.00
2019-05-29T09:45:54.255Z,101753.41
2019-05-29T09:48:23.317Z,101750.78
2019-05-29T09:50:50.513Z,101748.03
2019-05-29T09:53:13.956Z,101749.46
2019-05-29T09:55:39.374Z,101745.53
2019-05-29T09:58:04.950Z,101758.72
2019-05-29T10:00:30.410Z,101758.19
2019-05-29T10:02:57.165Z,101752.33
2019-05-29T10:05:22.738Z,101754.75
2019-05-29T10:07:48.200Z,101757.10
2019-05-29T10:10:15.929Z,101755.44
2019-05-29T10:12:41.504Z,101751.66
2019-05-29T10:15:07.739Z,101754.31
2019-05-29T10:17:33.192Z,101750.63
2019-05-29T10:19:58.957Z,101749.78
2019-05-29T10:22:24.451Z,101754.92
2019-05-29T10:24:49.902Z,101754.98
2019-05-29T10:27:15.399Z,101753.94
2019-05-29T10:29:40.849Z,101756.00
2019-05-29T10:32:07.035Z,101753.74
2019-05-29T10:34:32.685Z,101758.27
2019-05-29T10:36:58.173Z,101753.81
2019-05-29T10:39:23.600Z,101746.10
2019-05-29T10:41:49.514Z,101752.32
2019-05-29T10:44:15.383Z,101747.55
2019-05-29T10:46:40.900Z,101749.03
2019-05-29T10:49:06.458Z,101744.62
2019-05-29T10:51:31.809Z,101749.77
2019-05-29T10:53:58.853Z,101748.28
2019-05-29T10:56:24.729Z,101749.65
2019-05-29T10:58:56.211Z,101754.22
2019-05-29T11:01:17.181Z,101745.11
2019-05-29T11:03:42.647Z,101730.56
2019-05-29T11:06:08.090Z,101733.96
2019-05-29T11:08:33.826Z,101731.73
2019-05-29T11:10:59.260Z,101733.21
2019-05-29T11:13:24.716Z,101730.75
2019-05-29T11:15:50.817Z,101734.23
2019-05-29T11:18:16.406Z,101730.95
2019-05-29T11:20:41.839Z,101730.50
2019-05-29T11:23:07.529Z,101728.08
2019-05-29T11:25:33.052Z,101730.16
2019-05-29T11:27:58.846Z,101734.28
2019-05-29T11:30:24.450Z,101723.81
2019-05-29T11:32:52.707Z,101726.67
2019-05-29T11:35:18.095Z,101720.56
2019-05-29T11:37:43.784Z,101722.03
2019-05-29T11:40:09.577Z,101712.56
2019-05-29T11:42:34.994Z,101725.16
2019-05-29T11:45:00.714Z,101723.52
2019-05-29T11:47:26.138Z,101724.81
2019-05-29T11:49:51.627Z,101719.23
2019-05-29T11:52:24.561Z,101729.95
2019-05-29T11:54:44.465Z,101715.34
2019-05-29T11:57:10.136Z,101720.95
2019-05-29T11:59:36.094Z,101717.41
2019-05-29T12:02:03.414Z,101710.14
2019-05-29T12:04:29.085Z,101708.84
2019-05-29T12:06:55.352Z,101709.95
2019-05-29T12:09:32.316Z,101707.91
2019-05-29T12:11:48.161Z,101707.11
2019-05-29T12:14:13.565Z,101712.09
2019-05-29T12:16:39.087Z,101712.15
2019-05-29T12:19:05.229Z,101715.17
2019-05-29T12:21:30.812Z,101716.84
2019-05-29T12:23:56.295Z,101715.05
2019-05-29T12:26:23.152Z,101708.89
2019-05-29T12:28:48.808Z,101710.69
2019-05-29T12:31:14.263Z,101706.84
2019-05-29T12:33:40.215Z,101709.53
2019-05-29T12:36:06.386Z,101705.69
2019-05-29T12:38:31.800Z,101705.42
2019-05-29T12:40:57.835Z,101703.45
2019-05-29T12:43:27.237Z,101708.50
2019-05-29T12:45:50.561Z,101704.99
2019-05-29T12:48:16.542Z,101710.38
2019-05-29T12:50:42.375Z,101710.27
2019-05-29T12:53:07.817Z,101710.92
2019-05-29T12:55:33.276Z,101708.00
2019-05-29T12:57:59.951Z,101699.20
2019-05-29T13:00:25.686Z,101697.64
2019-05-29T13:02:51.432Z,101693.66
2019-05-29T13:05:21.349Z,101695.23
2019-05-29T13:07:46.845Z,101691.23
2019-05-29T13:10:30.673Z,101688.92
2019-05-29T13:12:51.319Z,101698.47
2019-05-29T13:15:18.630Z,101695.67
2019-05-29T13:17:44.358Z,101693.67
2019-05-29T13:20:21.100Z,101687.59
2019-05-29T13:22:39.396Z,101688.92
2019-05-29T13:25:05.772Z,101677.34
2019-05-29T13:27:33.793Z,101678.11
2019-05-29T13:30:01.715Z,101684.72
2019-05-29T13:32:26.358Z,101685.13
2019-05-29T13:34:51.818Z,101683.09
2019-05-29T13:37:17.264Z,101680.44
2019-05-29T13:39:42.744Z,101675.23
2019-05-29T13:42:11.770Z,101678.04
2019-05-29T13:44:35.483Z,101678.52
2019-05-29T13:47:01.930Z,101684.20
2019-05-29T13:49:27.487Z,101671.41
2019-05-29T13:51:53.039Z,101674.84
2019-05-29T13:54:18.703Z,101677.76
2019-05-29T13:56:44.276Z,101667.92
2019-05-29T13:59:09.811Z,101674.80
2019-05-29T14:01:35.809Z,101673.73
2019-05-29T14:04:02.479Z,101667.34
2019-05-29T14:06:28.037Z,101674.16
2019-05-29T14:08:53.501Z,101669.72
2019-05-29T14:11:19.294Z,101667.02
2019-05-29T14:13:44.766Z,101666.28
2019-05-29T14:16:10.211Z,101664.37
2019-05-29T14:18:35.915Z,101665.52
2019-05-29T14:21:01.389Z,101667.69
2019-05-29T14:23:26.846Z,101662.16
2019-05-29T14:25:52.299Z,101658.13
2019-05-29T14:28:17.739Z,101661.55
2019-05-29T14:30:43.214Z,101655.34
2019-05-29T14:33:11.327Z,101664.91
2019-05-29T14:35:37.828Z,101662.03
2019-05-29T14:38:06.948Z,101660.92
2019-05-29T14:40:30.418Z,101652.85
2019-05-29T14:42:56.131Z,101656.89
2019-05-29T14:45:21.717Z,101654.67
2019-05-29T14:47:47.469Z,101659.77
2019-05-29T14:50:14.177Z,101659.50
2019-05-29T14:52:39.693Z,101656.69
2019-05-29T14:55:06.782Z,101649.27
2019-05-29T14:57:32.275Z,101656.95
2019-05-29T14:59:57.796Z,101657.48
2019-05-29T15:02:24.287Z,101653.32
2019-05-29T15:04:49.942Z,101658.06
2019-05-29T15:07:15.670Z,101655.34
2019-05-29T15:09:41.138Z,101648.32
2019-05-29T15:12:07.916Z,101652.72
2019-05-29T15:14:33.533Z,101651.99
2019-05-29T15:16:59.083Z,101657.86
2019-05-29T15:19:24.534Z,101657.64
2019-05-29T15:21:50.072Z,101656.12
2019-05-29T15:24:18.192Z,101652.93
2019-05-29T15:26:43.638Z,101659.41
2019-05-29T15:29:18.200Z,101651.99
2019-05-29T15:31:43.757Z,101655.48
2019-05-29T15:34:10.284Z,101659.91
2019-05-29T15:36:35.814Z,101655.41
2019-05-29T15:39:01.544Z,101649.66
2019-05-29T15:41:27.126Z,101651.75
2019-05-29T15:43:55.855Z,101652.54
2019-05-29T15:46:21.413Z,101644.68
2019-05-29T15:48:46.900Z,101653.56
2019-05-29T15:51:13.217Z,101647.06
2019-05-29T15:53:38.897Z,101640.83
2019-05-29T15:56:23.708Z,101646.46
2019-05-29T15:58:36.553Z,101641.16
2019-05-29T16:01:02.305Z,101639.48
2019-05-29T16:03:27.871Z,101636.22
2019-05-29T16:05:53.325Z,101635.46
2019-05-29T16:08:18.777Z,101637.56
2019-05-29T16:10:44.197Z,101637.91
2019-05-29T16:13:11.013Z,101639.98
2019-05-29T16:15:36.651Z,101633.17
2019-05-29T16:18:02.370Z,101631.58
2019-05-29T16:20:27.828Z,101630.61
2019-05-29T16:22:53.287Z,101627.31
2019-05-29T16:25:19.214Z,101623.79
2019-05-29T16:27:44.746Z,101619.52
2019-05-29T16:30:13.611Z,101618.73
2019-05-29T16:32:40.947Z,101610.69
2019-05-29T16:35:06.718Z,101612.09
2019-05-29T16:37:32.878Z,101618.03
2019-05-29T16:39:58.542Z,101612.53
2019-05-29T16:42:24.284Z,101613.98
2019-05-29T16:44:49.757Z,101618.12
2019-05-29T16:47:16.503Z,101615.77
2019-05-29T16:49:42.547Z,101610.56
2019-05-29T16:52:08.419Z,101609.52
2019-05-29T16:54:34.262Z,101609.72
2019-05-29T16:56:59.736Z,101614.36
2019-05-29T16:59:29.030Z,101613.48
2019-05-29T17:01:52.477Z,101608.56
2019-05-29T17:04:18.038Z,101614.64
2019-05-29T17:06:43.588Z,101614.17
2019-05-29T17:09:10.809Z,101609.41
2019-05-29T17:11:36.402Z,101613.00
2019-05-29T17:14:02.855Z,101614.16
2019-05-29T17:16:28.492Z,101617.45
2019-05-29T17:18:54.117Z,101608.77
2019-05-29T17:21:20.743Z,101618.32
2019-05-29T17:23:46.739Z,101621.97
2019-05-29T17:26:12.270Z,101623.13
2019-05-29T17:28:38.003Z,101621.67
2019-05-29T17:31:03.556Z,101625.88
2019-05-29T17:33:29.013Z,101615.28
2019-05-29T17:35:55.055Z,101619.56
2019-05-29T17:38:21.201Z,101622.06
2019-05-29T17:40:47.093Z,101621.32
2019-05-29T17:43:12.584Z,101618.12
2019-05-29T17:45:38.065Z,101614.92
2019-05-29T17:48:03.892Z,101623.07
2019-05-29T17:50:29.387Z,101632.91
2019-05-29T17:52:54.855Z,101626.80
2019-05-29T17:55:22.154Z,101628.17
2019-05-29T17:57:47.648Z,101637.09
2019-05-29T18:00:18.003Z,101630.63
2019-05-29T18:02:52.113Z,101629.75
2019-05-29T18:05:11.268Z,101634.34
2019-05-29T18:07:37.133Z,101639.09
2019-05-29T18:10:03.180Z,101638.20
2019-05-29T18:12:28.581Z,101637.59
2019-05-29T18:14:54.075Z,101635.69
2019-05-29T18:17:19.715Z,101634.34
2019-05-29T18:19:45.525Z,101637.86
2019-05-29T18:22:10.895Z,101635.48
2019-05-29T18:24:36.406Z,101639.09
2019-05-29T18:27:01.898Z,101634.56
2019-05-29T18:29:29.466Z,101630.81
2019-05-29T18:31:54.475Z,101641.73
2019-05-29T18:34:20.821Z,101638.59
2019-05-29T18:36:46.571Z,101635.22
2019-05-29T18:39:12.116Z,101632.42
2019-05-29T18:41:37.558Z,101632.84
2019-05-29T18:44:03.245Z,101636.09
2019-05-29T18:46:29.243Z,101636.09
2019-05-29T18:48:54.775Z,101634.98
2019-05-29T18:51:20.487Z,101635.72
2019-05-29T18:53:45.899Z,101632.36
2019-05-29T18:56:12.374Z,101637.22
2019-05-29T18:58:37.843Z,101637.45
2019-05-29T19:01:04.198Z,101629.20
2019-05-29T19:03:29.772Z,101632.25
2019-05-29T19:05:55.526Z,101638.30
2019-05-29T19:08:21.648Z,101629.67
2019-05-29T19:10:47.598Z,101637.09
2019-05-29T19:13:13.672Z,101635.05
2019-05-29T19:15:39.529Z,101638.72
2019-05-29T19:18:04.994Z,101637.80
2019-05-29T19:20:30.732Z,101640.70
2019-05-29T19:22:56.205Z,101644.20
2019-05-29T19:25:22.639Z,101648.95
2019-05-29T19:27:48.571Z,101652.92
2019-05-29T19:30:15.696Z,101655.57
2019-05-29T19:32:41.295Z,101653.47
2019-05-29T19:35:08.340Z,101656.41
2019-05-29T19:37:34.170Z,101660.17
2019-05-29T19:39:59.662Z,101655.34
2019-05-29T19:42:26.124Z,101656.99
2019-05-29T19:44:51.897Z,101665.27
2019-05-29T19:47:18.434Z,101666.39
2019-05-29T19:49:44.391Z,101669.94
2019-05-29T19:52:10.542Z,101662.48
2019-05-29T19:54:38.609Z,101665.79
2019-05-29T19:57:05.978Z,101678.13
2019-05-29T19:59:32.080Z,101677.30
2019-05-29T20:01:57.581Z,101681.77
2019-05-29T20:04:23.042Z,101674.46
2019-05-29T20:06:48.876Z,101678.98
2019-05-29T20:09:14.543Z,101681.35
2019-05-29T20:11:40.838Z,101685.76
2019-05-29T20:14:07.637Z,101682.13
2019-05-29T20:16:34.231Z,101693.68
2019-05-29T20:19:00.159Z,101693.38
2019-05-29T20:21:25.831Z,101692.25
2019-05-29T20:23:51.454Z,101694.61
2019-05-29T20:26:16.938Z,101689.25
2019-05-29T20:28:42.859Z,101691.70
2019-05-29T20:31:11.739Z,101696.59
2019-05-29T20:33:36.659Z,101695.50
2019-05-29T20:36:02.060Z,101692.45
2019-05-29T20:38:27.746Z,101692.23
2019-05-29T20:40:53.304Z,101690.73
2019-05-29T20:43:18.791Z,101690.70
2019-05-29T20:45:44.227Z,101686.19
2019-05-29T20:48:10.627Z,101688.53
2019-05-29T20:50:37.021Z,101689.96
2019-05-29T20:53:02.538Z,101688.97
2019-05-29T20:55:28.009Z,101690.18
2019-05-29T20:57:53.473Z,101691.72
2019-05-29T21:00:26.164Z,101689.04
2019-05-29T21:02:51.653Z,101688.90
2019-05-29T21:05:17.226Z,101691.17
2019-05-29T21:07:43.013Z,101691.97
2019-05-29T21:10:08.586Z,101689.39
2019-05-29T21:12:35.215Z,101689.97
2019-05-29T21:15:01.090Z,101700.59
2019-05-29T21:17:26.562Z,101704.44
2019-05-29T21:19:52.025Z,101704.03
2019-05-29T21:22:17.406Z,101705.09
2019-05-29T21:24:49.956Z,101695.72
2019-05-29T21:27:10.079Z,101695.50
2019-05-29T21:29:35.591Z,101703.94
2019-05-29T21:32:01.162Z,101699.69
2019-05-29T21:34:26.627Z,101701.70
2019-05-29T21:36:52.113Z,101705.13
2019-05-29T21:39:17.592Z,101705.89
2019-05-29T21:41:44.557Z,101699.78
2019-05-29T21:44:10.201Z,101704.80
2019-05-29T21:46:36.705Z,101702.77
2019-05-29T21:49:02.603Z,101701.93
2019-05-29T21:51:28.067Z,101701.52
2019-05-29T21:53:53.802Z,101702.78
2019-05-29T21:56:19.301Z,101699.67
2019-05-29T21:58:59.929Z,101708.58
2019-05-29T22:01:11.939Z,101707.05
2019-05-29T22:03:38.340Z,101700.01
2019-05-29T22:06:03.907Z,101699.27
2019-05-29T22:08:29.384Z,101701.08
2019-05-29T22:10:55.514Z,101698.50
2019-05-29T22:13:21.135Z,101702.06
2019-05-29T22:15:46.588Z,101690.05
2019-05-29T22:18:12.135Z,101699.80
2019-05-29T22:20:37.519Z,101694.97
2019-05-29T22:23:03.124Z,101696.38
2019-05-29T22:25:28.584Z,101700.12
2019-05-29T22:27:55.572Z,101685.58
2019-05-29T22:30:22.573Z,101693.39
2019-05-29T22:32:48.093Z,101685.67
2019-05-29T22:35:13.647Z,101684.83
2019-05-29T22:37:39.134Z,101691.23
2019-05-29T22:40:04.755Z,101691.88
2019-05-29T22:42:30.246Z,101697.02
2019-05-29T22:44:55.711Z,101691.34
2019-05-29T22:47:21.422Z,101690.37
2019-05-29T22:49:46.901Z,101684.93
2019-05-29T22:52:12.547Z,101683.20
2019-05-29T22:54:38.419Z,101690.36
2019-05-29T22:57:03.889Z,101685.20
2019-05-29T22:59:32.286Z,101683.39
2019-05-29T23:01:56.531Z,101679.52
2019-05-29T23:04:22.376Z,101684.05
2019-05-29T23:06:48.142Z,101681.33
2019-05-29T23:09:13.612Z,101681.57
2019-05-29T23:11:39.090Z,101686.92
2019-05-29T23:14:04.655Z,101680.48
2019-05-29T23:16:30.405Z,101682.18
2019-05-29T23:18:56.470Z,101682.28
2019-05-29T23:21:22.010Z,101689.70
2019-05-29T23:23:47.503Z,101688.42
2019-05-29T23:26:12.986Z,101686.80
2019-05-29T23:28:38.458Z,101686.91
2019-05-29T23:31:03.933Z,101690.42
2019-05-29T23:33:29.403Z,101683.45
2019-05-29T23:35:54.912Z,101682.84
2019-05-29T23:38:20.328Z,101678.88
2019-05-29T23:40:45.794Z,101676.94
2019-05-29T23:43:11.257Z,101669.54
2019-05-29T23:45:36.822Z,101674.75
2019-05-29T23:48:02.284Z,101671.23
2019-05-29T23:50:27.741Z,101678.78
2019-05-29T23:52:53.631Z,101682.38
2019-05-29T23:55:19.046Z,101678.11
2019-05-29T23:57:44.514Z,101677.37
